Time;durP1;ratioP1;P1;durP2;ratioP2;P2;SDS_P1;SDS_P2;PMS_P1;PMS_P2;Temp;Humidity;BMP_temperature;BMP_pressure;BME280_temperature;BME280_humidity;BME280_pressure;Samples;Min_cycle;Max_cycle;Signal;HPM_P1;HPM_P2
2021/11/02 00:01:05;;;;;;;2.22;0.90;;;10.90;74.80;;;;;;4999841;28;20046;-77
2021/11/02 00:03:32;;;;;;;5.05;1.00;;;10.90;75.30;;;;;;5008516;28;20099;-77
2021/11/02 00:05:57;;;;;;;2.85;0.80;;;10.90;75.30;;;;;;5007628;28;20029;-76
2021/11/02 00:08:23;;;;;;;2.45;0.80;;;10.80;74.90;;;;;;5011805;28;20047;-77
2021/11/02 00:10:49;;;;;;;2.95;0.90;;;10.80;75.20;;;;;;4994551;28;20120;-77
2021/11/02 00:13:16;;;;;;;1.95;0.90;;;10.80;74.90;;;;;;4997910;28;20046;-76
2021/11/02 00:15:44;;;;;;;1.65;0.90;;;10.80;75.00;;;;;;5000220;28;20049;-76
2021/11/02 00:18:14;;;;;;;3.00;0.88;;;10.70;75.20;;;;;;5000264;28;20076;-77
2021/11/02 00:20:39;;;;;;;1.15;0.70;;;10.70;75.10;;;;;;4999659;28;20485;-77
2021/11/02 00:23:08;;;;;;;3.47;0.80;;;10.60;75.00;;;;;;4996624;28;20026;-76
2021/11/02 00:25:34;;;;;;;2.83;0.90;;;10.60;75.30;;;;;;5008691;28;20040;-76
2021/11/02 00:28:02;;;;;;;1.45;0.70;;;10.60;75.40;;;;;;5000042;28;20045;-76
2021/11/02 00:30:28;;;;;;;1.80;0.90;;;10.60;75.70;;;;;;4999896;28;20038;-75
2021/11/02 00:32:55;;;;;;;1.27;0.80;;;10.60;75.70;;;;;;5032130;28;20047;-76
2021/11/02 00:35:23;;;;;;;1.35;0.75;;;10.60;75.80;;;;;;5075989;28;20039;-76
2021/11/02 00:37:50;;;;;;;1.75;0.75;;;10.60;76.90;;;;;;5090194;28;20661;-76
2021/11/02 00:40:17;;;;;;;1.85;0.77;;;10.60;74.90;;;;;;5078360;28;20016;-76
2021/11/02 00:45:22;;;;;;;2.63;0.80;;;10.60;75.60;;;;;;5086983;28;20107;-76
2021/11/02 00:47:51;;;;;;;3.10;0.88;;;10.60;75.90;;;;;;5087057;28;20057;-77
2021/11/02 00:50:17;;;;;;;2.55;0.60;;;10.60;75.90;;;;;;5075761;28;20111;-77
2021/11/02 00:52:43;;;;;;;2.55;0.90;;;10.60;75.60;;;;;;5090506;28;20190;-76
2021/11/02 00:55:09;;;;;;;2.28;0.77;;;10.50;75.60;;;;;;5069116;28;20020;-77
2021/11/02 00:57:35;;;;;;;3.15;0.70;;;10.50;75.60;;;;;;5087011;28;20046;-75
2021/11/02 01:00:02;;;;;;;2.55;0.68;;;10.50;76.00;;;;;;5087865;28;20524;-76
2021/11/02 01:02:28;;;;;;;2.05;0.77;;;10.50;75.90;;;;;;5090657;28;20023;-75
2021/11/02 01:04:54;;;;;;;2.03;0.82;;;10.50;76.20;;;;;;5074789;28;20100;-76
2021/11/02 01:07:19;;;;;;;1.02;0.68;;;10.60;76.20;;;;;;5071064;28;20411;-76
2021/11/02 01:09:45;;;;;;;3.38;0.70;;;10.50;76.30;;;;;;5079333;28;20400;-76
2021/11/02 01:12:11;;;;;;;4.05;0.80;;;10.50;76.00;;;;;;5080220;28;20473;-77
2021/11/02 01:14:38;;;;;;;1.90;0.70;;;10.50;75.90;;;;;;5086612;28;20052;-76
2021/11/02 01:17:04;;;;;;;1.70;0.60;;;10.50;75.80;;;;;;5090774;28;20075;-77
2021/11/02 01:19:30;;;;;;;2.50;0.80;;;10.50;76.00;;;;;;5089456;28;20038;-76
2021/11/02 01:21:55;;;;;;;1.75;0.60;;;10.50;76.30;;;;;;5086716;28;20020;-75
2021/11/02 01:24:21;;;;;;;1.85;0.60;;;10.40;75.80;;;;;;5089250;28;20485;-75
2021/11/02 01:26:48;;;;;;;2.58;0.70;;;10.40;76.10;;;;;;5085948;28;20048;-77
2021/11/02 01:29:15;;;;;;;1.45;0.50;;;10.30;76.20;;;;;;5089375;28;20016;-76
2021/11/02 01:31:43;;;;;;;1.20;0.57;;;10.30;76.20;;;;;;5089205;28;20439;-76
2021/11/02 01:34:08;;;;;;;2.00;0.73;;;10.30;76.70;;;;;;5061288;28;20028;-76
2021/11/02 01:36:34;;;;;;;1.50;0.60;;;10.30;76.70;;;;;;5083727;28;20097;-75
2021/11/02 01:39:01;;;;;;;3.25;0.70;;;10.20;76.70;;;;;;5086227;28;20047;-76
2021/11/02 01:41:28;;;;;;;3.50;0.88;;;10.10;76.90;;;;;;5086609;28;20024;-76
2021/11/02 01:43:57;;;;;;;2.67;0.82;;;10.10;76.90;;;;;;5071514;28;20059;-77
2021/11/02 01:46:25;;;;;;;2.65;0.88;;;10.10;77.00;;;;;;5077079;28;20016;-76
2021/11/02 01:48:52;;;;;;;2.83;0.80;;;10.00;77.20;;;;;;5085592;28;20024;-76
2021/11/02 01:51:18;;;;;;;2.80;0.80;;;10.00;77.40;;;;;;5086091;28;20036;-76
2021/11/02 01:53:44;;;;;;;2.25;0.80;;;10.00;77.60;;;;;;5068312;28;20069;-76
2021/11/02 01:56:12;;;;;;;1.75;0.70;;;10.00;77.60;;;;;;5088898;28;20024;-77
2021/11/02 01:58:38;;;;;;;1.50;0.70;;;9.90;77.50;;;;;;5087894;28;20110;-77
2021/11/02 02:01:05;;;;;;;1.50;0.60;;;9.90;77.70;;;;;;5087283;28;20104;-77
2021/11/02 02:03:52;;;;;;;2.80;0.95;;;9.90;78.20;;;;;;5085850;28;20034;-76
2021/11/02 02:06:53;;;;;;;2.53;0.80;;;10.00;77.30;;;;;;5082026;28;20032;-76
2021/11/02 02:09:29;;;;;;;2.42;0.75;;;10.00;77.80;;;;;;5004816;28;20076;-76
2021/11/02 02:12:21;;;;;;;1.02;0.50;;;10.00;78.70;;;;;;5006033;28;20038;-77
2021/11/02 02:15:05;;;;;;;2.47;0.63;;;10.00;77.20;;;;;;5000261;28;20038;-75
2021/11/02 02:17:44;;;;;;;1.77;0.68;;;10.00;78.00;;;;;;5009441;28;20073;-75
2021/11/02 02:20:23;;;;;;;2.75;0.75;;;10.00;77.90;;;;;;5009268;28;20182;-76
2021/11/02 02:23:33;;;;;;;1.20;0.70;;;10.10;77.60;;;;;;4993605;28;20046;-76
2021/11/02 02:26:10;;;;;;;2.97;1.02;;;10.10;77.30;;;;;;5008766;28;20034;-75
2021/11/02 02:28:42;;;;;;;1.63;0.65;;;10.00;77.00;;;;;;5006865;28;20041;-75
2021/11/02 02:31:11;;;;;;;1.73;0.60;;;10.00;77.50;;;;;;5009959;28;20050;-75
2021/11/02 02:33:41;;;;;;;2.15;0.70;;;9.90;77.40;;;;;;5000094;28;20045;-74
2021/11/02 02:36:06;;;;;;;1.50;0.55;;;9.90;77.90;;;;;;5002782;28;20469;-76
2021/11/02 02:38:35;;;;;;;3.53;0.70;;;9.90;78.10;;;;;;5009135;28;20026;-77
2021/11/02 02:41:03;;;;;;;2.05;0.60;;;9.80;77.80;;;;;;5008771;28;20491;-75
2021/11/02 02:43:29;;;;;;;2.78;0.80;;;9.80;77.80;;;;;;4993910;28;20046;-77
2021/11/02 02:45:59;;;;;;;1.70;0.57;;;9.80;78.00;;;;;;5023289;28;20041;-77
2021/11/02 02:48:26;;;;;;;3.13;0.73;;;9.80;78.90;;;;;;5061302;28;20040;-77
2021/11/02 02:50:55;;;;;;;2.00;0.60;;;9.70;78.00;;;;;;5064915;28;20028;-75
2021/11/02 02:53:22;;;;;;;2.75;0.50;;;9.70;78.00;;;;;;5066513;28;20083;-75
2021/11/02 02:55:48;;;;;;;2.30;0.60;;;9.60;78.30;;;;;;5067983;28;20085;-74
2021/11/02 02:58:15;;;;;;;2.42;0.70;;;9.60;78.30;;;;;;5067232;28;20041;-77
2021/11/02 03:00:43;;;;;;;2.22;0.77;;;9.60;78.50;;;;;;5064803;28;20021;-75
2021/11/02 03:03:11;;;;;;;1.98;0.90;;;9.50;78.40;;;;;;5063755;28;20400;-76
2021/11/02 03:05:37;;;;;;;2.28;0.57;;;9.50;78.70;;;;;;5065049;28;20147;-77
2021/11/02 03:08:04;;;;;;;1.63;0.55;;;9.60;78.90;;;;;;5068844;28;23231;-78
2021/11/02 03:10:30;;;;;;;2.35;0.50;;;9.60;79.00;;;;;;5068745;28;20028;-77
2021/11/02 03:13:01;;;;;;;1.85;0.50;;;9.60;78.90;;;;;;5060523;28;20402;-76
2021/11/02 03:18:32;;;;;;;2.55;0.60;;;9.60;78.90;;;;;;5068597;28;20489;-76
2021/11/02 03:54:39;;;;;;;1.35;0.60;;;9.40;79.10;;;;;;5020642;28;20058;-76
2021/11/02 04:23:18;;;;;;;1.02;0.43;;;9.30;80.40;;;;;;4991749;28;20054;-76
2021/11/02 04:30:30;;;;;;;1.88;0.50;;;9.30;80.10;;;;;;5011462;28;20040;-77
2021/11/02 05:46:57;;;;;;;2.58;0.43;;;9.10;78.50;;;;;;4951573;29;19994;-75
2021/11/02 06:00:13;;;;;;;2.08;0.68;;;8.90;80.00;;;;;;4951550;28;20118;-75
2021/11/02 06:03:07;;;;;;;2.83;0.45;;;8.90;80.00;;;;;;4950646;29;20042;-76
2021/11/02 06:28:48;;;;;;;2.28;0.80;;;9.00;80.20;;;;;;5068850;28;20107;-77
2021/11/02 06:31:19;;;;;;;3.15;0.93;;;9.00;80.00;;;;;;5056051;28;20063;-77
2021/11/02 06:56:42;;;;;;;3.92;0.80;;;8.70;80.20;;;;;;5013488;28;20026;-75
2021/11/02 06:59:25;;;;;;;2.03;0.82;;;8.60;80.40;;;;;;5016546;28;20441;-74
2021/11/02 07:20:47;;;;;;;2.42;0.98;;;8.90;81.40;;;;;;5068897;28;20028;-73
2021/11/02 08:47:04;;;;;;;3.20;0.77;;;16.70;65.50;;;;;;5025817;28;20055;-74
2021/11/02 08:49:30;;;;;;;3.85;1.50;;;16.90;63.50;;;;;;5073354;28;20016;-74
2021/11/02 08:51:58;;;;;;;4.40;1.05;;;16.60;61.10;;;;;;5077358;28;20107;-74
2021/11/02 08:54:25;;;;;;;3.13;1.67;;;16.40;63.00;;;;;;5075591;28;20035;-73
2021/11/02 08:56:54;;;;;;;3.63;1.17;;;16.10;61.90;;;;;;5077285;28;20031;-76
2021/11/02 08:59:20;;;;;;;7.00;1.45;;;15.60;62.00;;;;;;5075904;28;20060;-74
2021/11/02 09:01:57;;;;;;;2.58;1.00;;;15.30;63.50;;;;;;5073432;28;20101;-74
2021/11/02 09:04:30;;;;;;;3.00;1.00;;;15.30;64.30;;;;;;5077433;28;20047;-72
2021/11/02 09:06:59;;;;;;;3.28;0.95;;;15.10;64.10;;;;;;5068959;28;20503;-72
2021/11/02 09:09:30;;;;;;;2.85;1.00;;;14.80;63.70;;;;;;5081836;28;20037;-72
2021/11/02 09:11:58;;;;;;;2.92;1.10;;;14.40;64.10;;;;;;5077256;28;20031;-72
2021/11/02 09:14:28;;;;;;;4.63;1.23;;;14.30;65.70;;;;;;5076219;28;20020;-73
2021/11/02 09:16:54;;;;;;;3.28;1.20;;;14.50;66.20;;;;;;5086750;28;20025;-73
2021/11/02 09:19:20;;;;;;;3.25;1.00;;;14.50;65.30;;;;;;5092603;28;20031;-73
2021/11/02 09:21:47;;;;;;;2.33;0.80;;;14.40;65.50;;;;;;5089563;28;20032;-72
2021/11/02 09:24:16;;;;;;;2.35;1.02;;;14.30;66.00;;;;;;5087323;28;20392;-74
2021/11/02 09:26:42;;;;;;;2.13;1.00;;;14.50;66.70;;;;;;5088022;28;20388;-67
2021/11/02 09:29:10;;;;;;;2.28;1.00;;;14.70;66.20;;;;;;5074167;28;20032;-74
2021/11/02 09:31:36;;;;;;;3.00;1.10;;;14.80;66.50;;;;;;5075596;28;20023;-74
2021/11/02 09:34:03;;;;;;;2.10;1.17;;;15.10;65.50;;;;;;5087006;28;20447;-73
2021/11/02 09:36:53;;;;;;;4.75;1.05;;;15.60;66.80;;;;;;5066438;28;20039;-79
2021/11/02 09:39:22;;;;;;;4.05;1.30;;;16.20;64.40;;;;;;5082595;28;20033;-68
2021/11/02 09:42:15;;;;;;;2.90;1.20;;;16.80;63.70;;;;;;5076684;28;20029;-68
2021/11/02 09:45:02;;;;;;;2.70;1.20;;;17.10;62.40;;;;;;5087958;28;20020;-71
2021/11/02 09:47:56;;;;;;;3.65;1.17;;;16.70;60.70;;;;;;5076687;28;20055;-69
2021/11/02 09:50:51;;;;;;;4.00;1.08;;;16.80;64.90;;;;;;5076143;28;20036;-68
2021/11/02 09:53:47;;;;;;;2.40;1.00;;;18.70;64.70;;;;;;5075630;28;20033;-67
2021/11/02 09:56:39;;;;;;;2.40;1.10;;;19.80;59.50;;;;;;5072072;28;20705;-72
2021/11/02 09:59:52;;;;;;;3.50;0.98;;;19.20;54.20;;;;;;5081169;28;20090;-72
2021/11/02 10:02:57;;;;;;;3.17;1.10;;;18.40;54.70;;;;;;5087920;28;20025;-70
2021/11/02 10:05:39;;;;;;;2.47;1.08;;;18.30;57.50;;;;;;5056817;28;20056;-70
2021/11/02 10:08:17;;;;;;;2.15;1.15;;;18.80;56.70;;;;;;5068336;28;20045;-71
2021/11/02 10:11:07;;;;;;;2.92;1.10;;;19.00;54.10;;;;;;5069938;28;20035;-71
2021/11/02 10:13:38;;;;;;;4.22;1.08;;;18.80;54.20;;;;;;5090595;28;20119;-70
2021/11/02 10:16:21;;;;;;;3.85;1.08;;;18.60;54.00;;;;;;5085925;28;20032;-71
2021/11/02 10:19:22;;;;;;;;;;;18.20;55.50;;;;;;5075783;28;20036;-72
2021/11/02 10:22:30;;;;;;;2.10;0.90;;;19.20;59.30;;;;;;5016753;28;20003;-71
2021/11/02 10:25:10;;;;;;;2.53;1.23;;;19.60;54.80;;;;;;5005282;28;20034;-72
2021/11/02 10:28:10;;;;;;;3.58;1.00;;;18.50;52.40;;;;;;5005502;28;20042;-73
2021/11/02 10:30:55;;;;;;;2.05;1.20;;;17.60;55.40;;;;;;5004924;28;20530;-73
2021/11/02 10:33:28;;;;;;;3.40;1.02;;;16.70;56.10;;;;;;5005845;28;20109;-73
2021/11/02 10:35:54;;;;;;;;;;;16.10;58.10;;;;;;5005578;28;20045;-72
2021/11/02 10:38:43;;;;;;;5.07;1.45;;;15.60;59.00;;;;;;5005404;28;19909;-71
2021/11/02 10:41:13;;;;;;;3.58;1.23;;;15.10;61.10;;;;;;5001845;28;20407;-73
2021/11/02 10:43:58;;;;;;;2.08;1.08;;;14.90;62.70;;;;;;5006920;28;20045;-73
2021/11/02 10:46:31;;;;;;;5.07;1.33;;;14.60;63.60;;;;;;5009105;28;20052;-73
2021/11/02 10:49:00;;;;;;;4.28;1.40;;;14.80;65.10;;;;;;5007596;28;20429;-72
2021/11/02 10:51:58;;;;;;;2.63;1.30;;;15.00;64.90;;;;;;5005298;28;20103;-72
2021/11/02 10:54:48;;;;;;;5.93;1.60;;;15.10;65.50;;;;;;5001648;28;20052;-73
2021/11/02 10:57:14;;;;;;;3.75;1.63;;;15.20;64.60;;;;;;4982532;28;20400;-72
2021/11/02 10:59:47;;;;;;;6.63;1.40;;;15.30;64.50;;;;;;4982528;28;20039;-72
2021/11/02 11:02:24;;;;;;;3.17;1.38;;;15.40;64.80;;;;;;5045924;28;20032;-74
2021/11/02 11:04:53;;;;;;;3.47;1.75;;;15.50;64.80;;;;;;5088078;28;20055;-74
2021/11/02 11:07:19;;;;;;;3.38;1.60;;;16.00;65.20;;;;;;5086040;28;20082;-74
2021/11/02 11:09:52;;;;;;;3.08;1.42;;;16.20;64.70;;;;;;5076793;28;20061;-74
2021/11/02 11:12:20;;;;;;;3.15;1.20;;;16.20;62.90;;;;;;5075072;28;20028;-74
2021/11/02 11:14:46;;;;;;;3.05;1.20;;;16.10;63.30;;;;;;5075844;28;20701;-73
2021/11/02 11:17:16;;;;;;;3.88;1.13;;;15.80;62.80;;;;;;5072608;28;20033;-71
2021/11/02 11:20:10;;;;;;;4.32;1.02;;;15.70;63.70;;;;;;5072515;28;20523;-72
2021/11/02 11:22:47;;;;;;;;;;;15.50;64.70;;;;;;5083142;28;20076;-71
2021/11/02 11:25:22;;;;;;;2.22;1.08;;;15.60;65.10;;;;;;5087140;28;20395;-73
2021/11/02 11:27:55;;;;;;;4.45;1.13;;;15.60;64.20;;;;;;5076349;28;20055;-74
2021/11/02 11:30:22;;;;;;;;;;;15.40;64.10;;;;;;5079893;28;20442;-72
2021/11/02 11:32:50;;;;;;;2.75;0.90;;;15.20;65.30;;;;;;5082867;28;19914;-71
2021/11/02 11:35:16;;;;;;;3.50;1.42;;;15.00;65.30;;;;;;5077282;28;20035;-73
2021/11/02 11:37:44;;;;;;;4.07;1.20;;;14.90;66.10;;;;;;5086415;28;20107;-73
2021/11/02 11:40:12;;;;;;;4.07;1.17;;;14.80;66.50;;;;;;5089078;28;20493;-74
2021/11/02 11:42:39;;;;;;;3.47;1.30;;;14.70;66.60;;;;;;5065051;28;20128;-73
2021/11/02 11:45:12;;;;;;;3.65;1.48;;;14.80;67.20;;;;;;5084360;28;20480;-72
2021/11/02 11:47:38;;;;;;;2.78;1.10;;;14.50;66.80;;;;;;5082433;28;20025;-73
2021/11/02 11:50:22;;;;;;;2.83;1.02;;;14.50;67.90;;;;;;5080688;28;20025;-73
2021/11/02 11:52:51;;;;;;;3.58;1.30;;;14.70;68.50;;;;;;5074714;28;20032;-74
2021/11/02 11:55:25;;;;;;;3.67;0.90;;;14.80;68.00;;;;;;5086072;28;20028;-74
2021/11/02 11:58:02;;;;;;;2.47;1.05;;;14.80;67.80;;;;;;5081926;28;20030;-73
2021/11/02 12:00:28;;;;;;;2.58;1.00;;;15.00;68.40;;;;;;5069541;28;20038;-73
2021/11/02 12:03:23;;;;;;;2.30;0.90;;;15.00;67.40;;;;;;5085535;28;20028;-76
2021/11/02 12:06:01;;;;;;;3.50;0.88;;;15.00;67.70;;;;;;5079404;28;20023;-76
2021/11/02 12:08:37;;;;;;;2.72;1.00;;;15.10;67.60;;;;;;5095955;28;20040;-75
2021/11/02 12:11:04;;;;;;;4.30;1.02;;;15.10;66.60;;;;;;5074845;28;20023;-74
2021/11/02 12:13:38;;;;;;;2.40;0.90;;;14.90;66.20;;;;;;5078094;28;20028;-75
2021/11/02 12:16:20;;;;;;;2.58;0.80;;;14.90;67.10;;;;;;5088552;28;20556;-71
2021/11/02 12:18:53;;;;;;;4.80;0.70;;;15.00;67.10;;;;;;5088718;28;20028;-74
2021/11/02 12:21:20;;;;;;;2.35;0.60;;;14.80;66.50;;;;;;5071662;28;20489;-74
2021/11/02 12:23:51;;;;;;;1.60;0.57;;;14.60;67.10;;;;;;5077266;28;20013;-73
2021/11/02 12:26:17;;;;;;;1.55;0.60;;;14.60;67.90;;;;;;5076355;28;20432;-73
2021/11/02 12:28:46;;;;;;;1.77;0.55;;;14.70;68.40;;;;;;5075967;28;20039;-73
2021/11/02 12:31:14;;;;;;;3.10;0.65;;;14.70;68.10;;;;;;5073547;28;20388;-74
2021/11/02 12:33:51;;;;;;;2.47;0.57;;;14.60;68.20;;;;;;5082442;28;20400;-75
2021/11/02 12:36:26;;;;;;;4.38;0.93;;;14.60;69.50;;;;;;5083812;28;20063;-76
2021/11/02 12:39:05;;;;;;;2.95;0.70;;;14.70;68.90;;;;;;5077903;28;20024;-75
2021/11/02 12:41:31;;;;;;;6.10;0.77;;;14.70;67.80;;;;;;5091528;28;20027;-71
2021/11/02 12:44:08;;;;;;;2.63;0.55;;;14.50;68.60;;;;;;5073305;28;20051;-70
2021/11/02 12:46:36;;;;;;;3.70;0.70;;;14.50;68.80;;;;;;5089205;28;20021;-69
2021/11/02 12:49:03;;;;;;;2.45;0.70;;;14.50;68.70;;;;;;5086675;28;20540;-67
2021/11/02 12:51:34;;;;;;;4.22;0.80;;;14.50;68.90;;;;;;5078997;28;20078;-73
2021/11/02 12:54:02;;;;;;;2.35;0.73;;;14.50;69.20;;;;;;5078899;28;20553;-73
2021/11/02 12:56:33;;;;;;;1.33;0.57;;;14.50;69.20;;;;;;5089716;28;20028;-73
2021/11/02 12:59:20;;;;;;;1.98;0.52;;;14.60;69.00;;;;;;5082711;28;20025;-73
2021/11/02 13:01:48;;;;;;;2.17;0.55;;;14.60;69.30;;;;;;5080745;28;20082;-72
2021/11/02 13:04:17;;;;;;;4.22;0.60;;;14.50;68.60;;;;;;5088800;28;20020;-72
2021/11/02 13:06:53;;;;;;;2.50;0.63;;;14.30;68.70;;;;;;5086661;28;20040;-74
2021/11/02 13:09:21;;;;;;;2.05;0.55;;;14.20;68.90;;;;;;5065272;28;20048;-72
2021/11/02 13:11:59;;;;;;;3.38;0.47;;;14.10;70.10;;;;;;5077467;28;20139;-74
2021/11/02 13:14:42;;;;;;;1.33;0.57;;;14.00;69.90;;;;;;5075635;28;20028;-74
2021/11/02 13:17:12;;;;;;;3.28;0.68;;;14.10;69.90;;;;;;5074468;28;20029;-73
2021/11/02 13:19:43;;;;;;;3.53;0.70;;;14.00;70.50;;;;;;5075706;28;20025;-74
2021/11/02 13:22:19;;;;;;;1.30;0.40;;;14.00;70.50;;;;;;5088423;28;20032;-74
2021/11/02 13:25:22;;;;;;;2.03;0.57;;;14.10;70.40;;;;;;5087098;28;20040;-74
2021/11/02 13:27:54;;;;;;;4.63;1.17;;;14.00;70.20;;;;;;5062370;28;20059;-73
2021/11/02 13:30:46;;;;;;;1.60;0.68;;;14.00;70.60;;;;;;5077358;28;20085;-72
2021/11/02 13:33:19;;;;;;;2.80;0.65;;;14.00;70.50;;;;;;5076955;28;20029;-74
2021/11/02 13:35:50;;;;;;;1.58;0.70;;;14.00;70.50;;;;;;5077155;28;20485;-74
2021/11/02 13:38:23;;;;;;;3.35;0.55;;;14.10;70.50;;;;;;5074615;28;20036;-74
2021/11/02 13:40:50;;;;;;;5.82;0.70;;;14.10;70.50;;;;;;5088909;28;20027;-74
2021/11/02 13:43:45;;;;;;;2.78;0.90;;;14.00;70.40;;;;;;5074106;28;20045;-73
2021/11/02 13:46:14;;;;;;;2.00;0.63;;;13.90;70.30;;;;;;5068855;28;20036;-74
2021/11/02 13:48:41;;;;;;;3.17;0.90;;;13.90;71.00;;;;;;5087096;28;20064;-73
2021/11/02 13:51:09;;;;;;;2.33;0.70;;;13.80;71.10;;;;;;5083368;28;20103;-73
2021/11/02 13:53:37;;;;;;;4.57;0.90;;;13.70;71.70;;;;;;5080110;28;20044;-73
2021/11/02 13:56:18;;;;;;;5.25;0.82;;;13.80;71.70;;;;;;5089402;28;20019;-74
2021/11/02 13:58:45;;;;;;;3.38;0.60;;;13.80;72.10;;;;;;5087820;28;20511;-74
2021/11/02 14:01:24;;;;;;;4.70;1.80;;;13.80;71.70;;;;;;5090379;28;20020;-73
2021/11/02 14:03:52;;;;;;;3.47;0.90;;;13.80;71.80;;;;;;5086344;28;20055;-73
2021/11/02 14:06:20;;;;;;;4.85;0.80;;;13.70;73.60;;;;;;5086726;28;20024;-74
2021/11/02 14:08:47;;;;;;;2.80;0.65;;;13.60;73.90;;;;;;5084950;28;20456;-73
2021/11/02 14:11:34;;;;;;;2.63;0.77;;;13.30;73.80;;;;;;5089403;28;20081;-74
2021/11/02 14:14:01;;;;;;;2.30;0.90;;;13.20;73.70;;;;;;5086620;28;20086;-74
2021/11/02 14:16:41;;;;;;;3.80;0.65;;;13.20;74.50;;;;;;5087484;28;20012;-73
2021/11/02 14:19:50;;;;;;;2.08;0.70;;;13.10;74.00;;;;;;5086847;28;20023;-73
2021/11/02 14:22:50;;;;;;;1.92;0.70;;;13.10;73.70;;;;;;5077298;28;20040;-74
2021/11/02 14:25:20;;;;;;;1.75;0.57;;;13.30;73.70;;;;;;5083757;28;20042;-73
2021/11/02 14:27:51;;;;;;;1.65;0.55;;;13.30;74.80;;;;;;5085916;28;20059;-73
2021/11/02 14:30:32;;;;;;;2.80;0.77;;;13.30;75.00;;;;;;5083654;28;20035;-73
2021/11/02 14:33:01;;;;;;;2.60;0.95;;;13.30;74.30;;;;;;5083960;28;20107;-73
2021/11/02 14:35:45;;;;;;;4.80;1.40;;;13.30;74.70;;;;;;5088357;28;20090;-74
2021/11/02 14:38:13;;;;;;;2.90;0.70;;;13.30;74.50;;;;;;5087803;28;20027;-73
2021/11/02 14:40:40;;;;;;;3.30;1.00;;;13.20;75.10;;;;;;5088416;28;20048;-74
2021/11/02 14:43:17;;;;;;;2.60;0.85;;;13.20;75.20;;;;;;5087704;28;20044;-72
2021/11/02 14:45:51;;;;;;;1.83;0.80;;;13.20;75.40;;;;;;5084052;28;20036;-73
2021/11/02 14:48:26;;;;;;;2.72;0.98;;;13.20;75.60;;;;;;5083352;28;20032;-73
2021/11/02 14:51:05;;;;;;;1.60;0.90;;;13.20;75.60;;;;;;5086001;28;20114;-73
2021/11/02 14:53:37;;;;;;;3.35;0.85;;;13.20;75.70;;;;;;5087931;28;20028;-73
2021/11/02 14:56:06;;;;;;;2.45;1.05;;;13.20;75.50;;;;;;5086483;28;20028;-73
2021/11/02 14:58:41;;;;;;;3.53;0.80;;;13.20;75.50;;;;;;5086623;28;20024;-73
2021/11/02 15:01:19;;;;;;;3.05;0.82;;;13.20;75.70;;;;;;5086852;28;20024;-72
2021/11/02 15:03:58;;;;;;;1.42;0.90;;;13.30;75.90;;;;;;5084132;28;20198;-73
2021/11/02 15:06:38;;;;;;;2.75;0.90;;;13.20;74.90;;;;;;5083591;28;20028;-73
2021/11/02 15:09:08;;;;;;;2.47;0.88;;;13.00;75.30;;;;;;5084578;28;20032;-69
2021/11/02 15:11:34;;;;;;;2.22;0.90;;;13.00;75.70;;;;;;5059292;28;20020;-69
2021/11/02 15:14:04;;;;;;;1.10;0.70;;;13.10;76.10;;;;;;5087970;28;20060;-74
2021/11/02 15:16:30;;;;;;;2.97;0.93;;;13.00;75.60;;;;;;5079708;28;20031;-71
2021/11/02 15:19:05;;;;;;;1.92;0.60;;;13.00;75.50;;;;;;5087907;28;20024;-76
2021/11/02 15:21:40;;;;;;;1.60;0.90;;;12.90;75.00;;;;;;5062955;28;20203;-69
2021/11/02 15:24:17;;;;;;;1.98;0.80;;;13.00;75.70;;;;;;5080906;28;20021;-67
2021/11/02 15:26:46;;;;;;;2.42;0.70;;;13.00;75.70;;;;;;5082650;28;20094;-67
2021/11/02 15:29:12;;;;;;;2.03;0.70;;;13.00;75.90;;;;;;5080234;28;20523;-67
2021/11/02 15:31:38;;;;;;;1.48;0.70;;;12.90;76.00;;;;;;5077048;28;20056;-67
2021/11/02 15:34:14;;;;;;;2.22;0.70;;;12.90;75.70;;;;;;5098187;28;20110;-67
2021/11/02 15:36:41;;;;;;;2.05;0.70;;;12.90;75.80;;;;;;5087530;28;20378;-67
2021/11/02 15:39:08;;;;;;;2.30;0.88;;;12.90;76.30;;;;;;5086690;28;20051;-67
2021/11/02 15:41:34;;;;;;;2.03;0.70;;;12.80;77.10;;;;;;5085651;28;20037;-67
2021/11/02 15:44:06;;;;;;;1.45;0.73;;;12.80;76.40;;;;;;5075651;28;20028;-67
2021/11/02 15:46:37;;;;;;;2.88;1.00;;;12.80;76.60;;;;;;5087851;28;20111;-67
2021/11/02 15:49:08;;;;;;;4.13;0.85;;;12.80;76.50;;;;;;5087271;28;20489;-67
2021/11/02 15:51:50;;;;;;;2.30;0.80;;;12.90;76.80;;;;;;5089721;28;20475;-67
2021/11/02 15:54:16;;;;;;;2.88;0.68;;;12.80;76.50;;;;;;5087433;28;20027;-66
2021/11/02 15:56:42;;;;;;;1.90;0.77;;;12.80;76.70;;;;;;5085946;28;20020;-67
2021/11/02 15:59:10;;;;;;;3.40;1.00;;;12.80;76.70;;;;;;5085241;28;20074;-66
2021/11/02 16:01:43;;;;;;;4.55;0.90;;;12.80;77.00;;;;;;5076913;28;20603;-66
2021/11/02 16:04:13;;;;;;;1.77;0.70;;;12.80;76.80;;;;;;5077654;28;20681;-67
2021/11/02 16:07:00;;;;;;;1.50;0.75;;;12.90;76.60;;;;;;5077503;28;20050;-66
2021/11/02 16:09:48;;;;;;;2.35;0.80;;;12.80;76.40;;;;;;5080037;28;20032;-67
2021/11/02 16:12:25;;;;;;;2.13;0.95;;;12.80;76.30;;;;;;5084183;28;20461;-67
2021/11/02 16:15:09;;;;;;;2.00;1.10;;;12.80;76.80;;;;;;5087630;28;20027;-67
2021/11/02 16:17:56;;;;;;;5.05;1.30;;;12.80;76.60;;;;;;5085958;28;20023;-66
2021/11/02 16:20:25;;;;;;;2.92;1.23;;;12.80;76.50;;;;;;5081519;28;20520;-66
2021/11/02 16:22:56;;;;;;;2.47;1.20;;;12.80;77.50;;;;;;5089578;28;20032;-66
2021/11/02 16:25:22;;;;;;;2.85;1.33;;;12.70;77.10;;;;;;5091600;28;20016;-66
2021/11/02 16:27:59;;;;;;;2.63;1.45;;;12.80;77.30;;;;;;5085096;28;20036;-66
2021/11/02 16:30:31;;;;;;;2.33;1.38;;;12.70;77.60;;;;;;5079456;28;20124;-66
2021/11/02 16:32:57;;;;;;;3.72;1.10;;;12.70;77.20;;;;;;5082859;28;20020;-66
2021/11/02 16:35:44;;;;;;;3.15;1.10;;;12.80;77.20;;;;;;5087368;28;20035;-66
2021/11/02 16:38:39;;;;;;;2.35;0.88;;;12.80;76.80;;;;;;5089374;28;20463;-66
2021/11/02 16:41:20;;;;;;;2.60;0.88;;;12.80;76.40;;;;;;5066482;28;20048;-68
2021/11/02 16:43:57;;;;;;;2.38;1.00;;;12.80;76.30;;;;;;5089366;28;20093;-68
2021/11/02 16:46:23;;;;;;;2.50;0.88;;;12.80;76.00;;;;;;5091309;28;20012;-68
2021/11/02 16:48:48;;;;;;;2.33;0.80;;;12.70;76.10;;;;;;5089222;28;20093;-70
2021/11/02 16:51:16;;;;;;;3.05;0.80;;;12.70;76.40;;;;;;5084241;28;20069;-67
2021/11/02 16:53:43;;;;;;;1.23;0.80;;;12.70;76.30;;;;;;5089285;28;20024;-68
2021/11/02 16:56:30;;;;;;;2.05;0.60;;;12.70;75.60;;;;;;5086180;28;20028;-67
2021/11/02 16:58:56;;;;;;;2.88;0.50;;;12.70;75.30;;;;;;5088745;28;20040;-68
2021/11/02 17:01:35;;;;;;;2.08;0.60;;;12.60;75.00;;;;;;5088165;28;20027;-68
2021/11/02 17:04:18;;;;;;;1.52;0.60;;;12.60;75.00;;;;;;5089318;28;20036;-66
2021/11/02 17:06:44;;;;;;;1.52;0.50;;;12.60;74.80;;;;;;5084206;28;20032;-66
2021/11/02 17:09:13;;;;;;;0.95;0.40;;;12.50;74.30;;;;;;5087225;28;20044;-65
2021/11/02 17:11:47;;;;;;;1.67;0.57;;;12.40;74.60;;;;;;5085634;28;20024;-67
2021/11/02 17:14:14;;;;;;;3.03;0.60;;;12.40;74.60;;;;;;5086230;28;20024;-68
2021/11/02 17:16:49;;;;;;;2.33;0.82;;;12.30;74.70;;;;;;5086646;28;20583;-68
2021/11/02 17:19:17;;;;;;;1.92;0.60;;;12.30;74.70;;;;;;5080285;28;20020;-68
2021/11/02 17:21:48;;;;;;;3.22;0.80;;;12.30;74.90;;;;;;5082139;28;20029;-72
2021/11/02 17:24:14;;;;;;;1.98;0.65;;;12.20;74.80;;;;;;5078163;28;20103;-72
2021/11/02 17:26:40;;;;;;;1.27;0.63;;;12.20;75.20;;;;;;5075458;28;20116;-71
2021/11/02 17:29:06;;;;;;;1.25;0.80;;;12.20;75.20;;;;;;5089709;28;20035;-71
2021/11/02 17:31:39;;;;;;;1.73;0.90;;;12.10;75.20;;;;;;5078917;28;20040;-72
2021/11/02 17:34:07;;;;;;;1.50;0.70;;;12.10;75.50;;;;;;5089132;28;20111;-72
2021/11/02 17:36:35;;;;;;;1.95;0.80;;;12.10;75.60;;;;;;5078453;28;20025;-72
2021/11/02 17:39:02;;;;;;;1.55;0.73;;;12.10;75.90;;;;;;5066021;28;20032;-71
2021/11/02 17:41:28;;;;;;;1.48;0.80;;;12.10;75.90;;;;;;5068961;28;20023;-71
2021/11/02 17:43:56;;;;;;;2.60;0.80;;;12.00;76.00;;;;;;5088100;28;20125;-72
2021/11/02 17:46:22;;;;;;;2.45;1.20;;;12.00;76.60;;;;;;5090657;28;20034;-72
2021/11/02 17:48:47;;;;;;;3.58;1.42;;;12.00;76.60;;;;;;5079580;28;20032;-72
2021/11/02 17:51:13;;;;;;;2.45;1.25;;;12.00;76.50;;;;;;5083915;28;20028;-72
2021/11/02 17:53:39;;;;;;;2.60;1.48;;;12.00;76.70;;;;;;5088222;28;20099;-72
2021/11/02 17:56:08;;;;;;;3.70;1.65;;;12.00;77.20;;;;;;5071116;28;20052;-72
2021/11/02 17:58:36;;;;;;;2.83;1.60;;;12.00;76.90;;;;;;5084921;28;20090;-71
2021/11/02 18:01:04;;;;;;;3.35;1.70;;;11.90;77.30;;;;;;5090126;28;20106;-72
2021/11/02 18:03:30;;;;;;;2.78;1.70;;;11.90;77.60;;;;;;5085921;28;20012;-71
2021/11/02 18:06:01;;;;;;;3.30;1.83;;;11.90;77.50;;;;;;5075850;28;20078;-72
2021/11/02 18:08:29;;;;;;;2.40;1.80;;;11.90;77.70;;;;;;5071095;28;20036;-71
2021/11/02 18:10:55;;;;;;;3.65;1.98;;;11.80;77.90;;;;;;5087028;28;20082;-71
2021/11/02 18:13:21;;;;;;;2.85;1.70;;;11.80;78.10;;;;;;5068494;28;20434;-71
2021/11/02 18:15:48;;;;;;;2.10;1.40;;;11.80;78.30;;;;;;5086815;28;20028;-71
2021/11/02 18:18:15;;;;;;;2.28;1.20;;;11.80;78.20;;;;;;5087720;28;20085;-72
2021/11/02 18:20:42;;;;;;;2.35;1.30;;;11.80;78.10;;;;;;5084851;28;20489;-71